createdAt,value
2019-06-01T00:00:17.640Z,5.10
2019-06-01T00:02:54.363Z,5.47
2019-06-01T00:05:16.553Z,5.27
2019-06-01T00:07:45.026Z,5.73
2019-06-01T00:10:14.393Z,5.67
2019-06-01T00:12:43.495Z,6.37
2019-06-01T00:15:12.475Z,5.77
2019-06-01T00:17:41.869Z,6.00
2019-06-01T00:20:10.733Z,5.87
2019-06-01T00:22:39.220Z,5.83
2019-06-01T00:25:07.788Z,7.47
2019-06-01T00:27:36.263Z,6.80
2019-06-01T00:30:05.366Z,6.83
2019-06-01T00:32:33.943Z,6.27
2019-06-01T00:35:02.463Z,7.63
2019-06-01T00:37:30.927Z,6.50
2019-06-01T00:39:59.422Z,6.60
2019-06-01T00:42:27.898Z,6.40
2019-06-01T00:44:56.498Z,6.30
2019-06-01T00:47:25.076Z,6.37
2019-06-01T00:49:53.548Z,6.83
2019-06-01T00:52:22.033Z,6.73
2019-06-01T00:54:51.695Z,7.27
2019-06-01T00:57:22.219Z,6.23
2019-06-01T00:59:53.184Z,6.53
2019-06-01T01:02:22.945Z,5.83
2019-06-01T01:05:01.476Z,6.40
2019-06-01T01:07:29.991Z,6.20
2019-06-01T01:09:58.572Z,7.03
2019-06-01T01:12:27.058Z,6.70
2019-06-01T01:14:55.639Z,6.93
2019-06-01T01:17:24.113Z,6.97
2019-06-01T01:19:53.910Z,6.50
2019-06-01T01:22:22.475Z,7.27
2019-06-01T01:24:50.984Z,6.30
2019-06-01T01:27:19.447Z,6.67
2019-06-01T01:29:48.983Z,6.70
2019-06-01T01:32:17.612Z,7.10
2019-06-01T01:34:47.377Z,7.30
2019-06-01T01:37:15.952Z,7.27
2019-06-01T01:39:44.430Z,6.90
2019-06-01T01:42:13.020Z,7.63
2019-06-01T01:44:41.511Z,7.77
2019-06-01T01:47:09.994Z,7.90
2019-06-01T01:49:38.569Z,7.90
2019-06-01T01:52:07.148Z,8.27
2019-06-01T01:54:35.615Z,8.50
2019-06-01T01:57:07.129Z,8.60
2019-06-01T01:59:34.378Z,8.83
2019-06-01T02:02:03.079Z,8.33
2019-06-01T02:04:31.826Z,8.87
2019-06-01T02:07:00.433Z,8.30
2019-06-01T02:09:28.979Z,8.60
2019-06-01T02:11:57.723Z,9.47
2019-06-01T02:14:26.377Z,9.03
2019-06-01T02:16:56.120Z,9.03
2019-06-01T02:19:24.917Z,8.63
2019-06-01T02:21:54.389Z,9.47
2019-06-01T02:24:23.007Z,9.60
2019-06-01T02:26:52.944Z,9.57
2019-06-01T02:29:22.378Z,9.87
2019-06-01T02:31:50.877Z,9.70
2019-06-01T02:34:19.557Z,10.00
2019-06-01T02:36:47.981Z,9.93
2019-06-01T02:39:16.531Z,10.97
2019-06-01T02:41:45.315Z,11.90
2019-06-01T02:44:13.775Z,11.00
2019-06-01T02:46:42.372Z,11.13
2019-06-01T02:49:10.964Z,10.80
2019-06-01T02:51:39.321Z,11.33
2019-06-01T02:54:07.910Z,11.37
2019-06-01T02:56:36.490Z,11.40
2019-06-01T02:59:06.802Z,12.07
2019-06-01T03:01:37.364Z,10.80
2019-06-01T03:04:08.607Z,10.60
2019-06-01T03:06:40.056Z,11.27
2019-06-01T03:09:09.272Z,10.80
2019-06-01T03:11:38.845Z,10.83
2019-06-01T03:14:09.335Z,10.03
2019-06-01T03:16:40.228Z,10.97
2019-06-01T03:19:09.105Z,10.93
2019-06-01T03:21:37.689Z,10.93
2019-06-01T03:24:10.626Z,10.60
2019-06-01T03:26:44.588Z,9.73
2019-06-01T03:29:15.619Z,10.83
2019-06-01T03:31:44.437Z,11.50
2019-06-01T03:34:14.010Z,9.50
2019-06-01T03:36:42.846Z,10.17
2019-06-01T03:39:12.883Z,9.63
2019-06-01T03:41:41.737Z,9.47
2019-06-01T03:44:10.212Z,11.00
2019-06-01T03:46:38.693Z,10.10
2019-06-01T03:49:07.716Z,10.07
2019-06-01T03:51:36.374Z,10.00
2019-06-01T03:54:06.443Z,9.50
2019-06-01T03:56:35.248Z,11.90
2019-06-01T03:59:05.002Z,10.33
2019-06-01T04:01:33.755Z,14.37
2019-06-01T04:04:03.083Z,9.90
2019-06-01T04:06:31.708Z,10.67
2019-06-01T04:09:01.590Z,10.07
2019-06-01T04:11:30.442Z,10.47
2019-06-01T04:13:58.949Z,9.37
2019-06-01T04:16:27.557Z,10.67
2019-06-01T04:18:56.045Z,10.73
2019-06-01T04:21:24.628Z,10.63
2019-06-01T04:23:53.133Z,9.90
2019-06-01T04:26:21.630Z,9.90
2019-06-01T04:28:50.109Z,9.90
2019-06-01T04:31:18.592Z,9.33
2019-06-01T04:33:47.070Z,9.27
2019-06-01T04:36:15.583Z,9.63
2019-06-01T04:38:44.170Z,9.07
2019-06-01T04:41:13.974Z,10.20
2019-06-01T04:43:42.928Z,9.50
2019-06-01T04:46:12.331Z,9.67
2019-06-01T04:48:41.221Z,9.73
2019-06-01T04:51:11.751Z,10.10
2019-06-01T04:53:40.046Z,8.87
2019-06-01T04:56:09.036Z,9.40
2019-06-01T04:58:37.834Z,9.90
2019-06-01T05:01:06.940Z,10.57
2019-06-01T05:03:35.611Z,10.37
2019-06-01T05:06:05.036Z,9.80
2019-06-01T05:08:33.739Z,9.63
2019-06-01T05:11:05.334Z,10.10
2019-06-01T05:13:32.895Z,10.57
2019-06-01T05:16:01.534Z,10.10
2019-06-01T05:18:30.029Z,9.70
2019-06-01T05:20:58.630Z,9.37
2019-06-01T05:23:27.273Z,9.57
2019-06-01T05:25:55.753Z,9.80
2019-06-01T05:28:24.353Z,10.23
2019-06-01T05:30:52.828Z,9.97
2019-06-01T05:33:36.509Z,9.20
2019-06-01T05:35:51.930Z,10.93
2019-06-01T05:38:20.353Z,10.37
2019-06-01T05:40:48.853Z,9.27
2019-06-01T05:43:19.336Z,9.90
2019-06-01T05:45:48.117Z,8.97
2019-06-01T05:48:23.611Z,10.40
2019-06-01T05:50:47.123Z,9.53
2019-06-01T05:53:16.753Z,9.33
2019-06-01T05:55:45.322Z,9.37
2019-06-01T05:58:15.113Z,8.93
2019-06-01T06:00:43.821Z,9.47
2019-06-01T06:03:15.339Z,9.13
2019-06-01T06:05:42.817Z,10.45
2019-06-01T06:08:12.723Z,9.93
2019-06-01T06:10:41.702Z,9.30
2019-06-01T06:13:11.106Z,8.93
2019-06-01T06:15:39.801Z,9.33
2019-06-01T06:18:08.277Z,8.77
2019-06-01T06:20:36.772Z,9.50
2019-06-01T06:23:05.346Z,9.03
2019-06-01T06:25:35.752Z,9.20
2019-06-01T06:28:04.349Z,8.97
2019-06-01T06:30:33.411Z,9.80
2019-06-01T06:33:02.336Z,9.77
2019-06-01T06:35:30.972Z,9.40
2019-06-01T06:37:59.568Z,9.00
2019-06-01T06:40:28.076Z,8.97
2019-06-01T06:42:56.456Z,9.53
2019-06-01T06:45:25.091Z,9.83
2019-06-01T06:47:53.531Z,9.10
2019-06-01T06:50:23.447Z,10.10
2019-06-01T06:52:52.953Z,10.07
2019-06-01T06:55:22.033Z,9.97
2019-06-01T06:57:50.629Z,8.93
2019-06-01T07:00:20.502Z,9.37
2019-06-01T07:02:49.269Z,8.20
2019-06-01T07:05:17.665Z,9.10
2019-06-01T07:07:46.137Z,9.03
2019-06-01T07:10:14.835Z,8.80
2019-06-01T07:12:43.346Z,9.03
2019-06-01T07:15:12.162Z,8.60
2019-06-01T07:17:40.941Z,9.00
2019-06-01T07:20:09.607Z,9.07
2019-06-01T07:22:38.183Z,8.87
2019-06-01T07:25:06.926Z,8.37
2019-06-01T07:27:35.525Z,7.33
2019-06-01T07:30:05.161Z,7.70
2019-06-01T07:32:33.757Z,6.87
2019-06-01T07:35:02.301Z,7.50
2019-06-01T07:37:30.896Z,7.90
2019-06-01T07:39:59.393Z,6.60
2019-06-01T07:42:29.418Z,6.83
2019-06-01T07:44:58.118Z,6.27
2019-06-01T07:47:27.356Z,6.57
2019-06-01T07:49:56.184Z,6.53
2019-06-01T07:52:24.652Z,6.10
2019-06-01T07:54:53.134Z,6.73
2019-06-01T07:57:21.743Z,6.40
2019-06-01T07:59:50.302Z,6.60
2019-06-01T08:02:18.887Z,5.80
2019-06-01T08:04:54.090Z,6.50
2019-06-01T08:07:17.953Z,7.60
2019-06-01T08:09:46.349Z,7.83
2019-06-01T08:12:14.861Z,6.63
2019-06-01T08:14:43.469Z,7.90
2019-06-01T08:17:12.068Z,6.90
2019-06-01T08:19:40.648Z,7.17
2019-06-01T08:22:09.154Z,7.63
2019-06-01T08:24:37.645Z,6.40
2019-06-01T08:27:06.134Z,7.77
2019-06-01T08:29:34.636Z,7.20
2019-06-01T08:32:03.131Z,6.87
2019-06-01T08:34:33.041Z,7.80
2019-06-01T08:37:01.717Z,7.80
2019-06-01T08:39:31.449Z,8.53
2019-06-01T08:42:00.105Z,8.20
2019-06-01T08:44:29.595Z,7.50
2019-06-01T08:46:58.296Z,7.43
2019-06-01T08:49:28.012Z,7.87
2019-06-01T08:51:56.686Z,7.80
2019-06-01T08:54:25.982Z,7.67
2019-06-01T08:56:54.543Z,8.10
2019-06-01T08:59:24.216Z,8.13
2019-06-01T09:01:52.842Z,7.93
2019-06-01T09:04:21.288Z,7.13
2019-06-01T09:06:49.701Z,6.93
2019-06-01T09:09:18.289Z,7.00
2019-06-01T09:11:46.784Z,6.57
2019-06-01T09:14:15.265Z,6.93
2019-06-01T09:16:43.855Z,7.20
2019-06-01T09:19:12.352Z,6.70
2019-06-01T09:21:40.912Z,7.53
2019-06-01T09:24:09.499Z,7.70
2019-06-01T09:26:38.091Z,7.77
2019-06-01T09:29:06.574Z,6.87
2019-06-01T09:31:36.671Z,7.37
2019-06-01T09:34:05.353Z,7.70
2019-06-01T09:36:34.514Z,7.07
2019-06-01T09:39:05.475Z,7.20
2019-06-01T09:41:34.562Z,7.40
2019-06-01T09:44:03.428Z,8.13
2019-06-01T09:46:33.841Z,7.63
2019-06-01T09:49:02.563Z,7.60
2019-06-01T09:51:31.415Z,6.83
2019-06-01T09:53:59.954Z,7.50
2019-06-01T09:56:30.856Z,6.40
2019-06-01T09:58:58.838Z,6.97
2019-06-01T10:01:28.085Z,6.33
2019-06-01T10:03:56.762Z,6.63
2019-06-01T10:06:25.318Z,6.37
2019-06-01T10:08:53.771Z,7.00
2019-06-01T10:11:22.252Z,7.20
2019-06-01T10:13:50.964Z,7.00
2019-06-01T10:16:19.857Z,7.07
2019-06-01T10:18:48.444Z,7.17
2019-06-01T10:21:16.932Z,6.47
2019-06-01T10:23:49.137Z,6.37
2019-06-01T10:26:16.073Z,7.37
2019-06-01T10:28:44.665Z,6.10
2019-06-01T10:31:13.171Z,7.03
2019-06-01T10:33:43.207Z,6.60
2019-06-01T10:36:20.653Z,6.73
2019-06-01T10:38:42.422Z,6.30
2019-06-01T10:41:10.920Z,6.00
2019-06-01T10:43:39.791Z,7.13
2019-06-01T10:46:08.611Z,6.37
2019-06-01T10:48:38.100Z,7.33
2019-06-01T10:51:06.577Z,7.47
2019-06-01T10:53:36.368Z,7.40
2019-06-01T10:56:04.922Z,7.37
2019-06-01T10:58:34.572Z,7.23
2019-06-01T11:01:03.398Z,7.57
2019-06-01T11:03:32.509Z,10.43
2019-06-01T11:06:01.082Z,10.77
2019-06-01T11:08:29.696Z,10.50
2019-06-01T11:10:58.198Z,9.70
2019-06-01T11:13:26.797Z,9.17
2019-06-01T11:15:55.501Z,8.77
2019-06-01T11:18:24.198Z,10.83
2019-06-01T11:20:52.690Z,9.80
2019-06-01T11:23:21.289Z,9.33
2019-06-01T11:25:49.786Z,9.90
2019-06-01T11:28:18.296Z,9.23
2019-06-01T11:30:46.885Z,9.13
2019-06-01T11:33:15.418Z,8.90
2019-06-01T11:35:45.312Z,9.93
2019-06-01T11:38:14.144Z,9.30
2019-06-01T11:40:42.906Z,9.57
2019-06-01T11:43:11.394Z,8.90
2019-06-01T11:45:40.781Z,8.80
2019-06-01T11:48:09.355Z,8.50
2019-06-01T11:50:38.747Z,8.27
2019-06-01T11:53:07.442Z,8.30
2019-06-01T11:55:37.041Z,8.03
2019-06-01T11:58:05.794Z,8.13
2019-06-01T12:00:35.382Z,8.13
2019-06-01T12:03:04.174Z,8.23
2019-06-01T12:05:32.630Z,8.07
2019-06-01T12:08:01.132Z,7.30
2019-06-01T12:10:29.633Z,8.20
2019-06-01T12:12:58.229Z,8.03
2019-06-01T12:15:27.324Z,7.17
2019-06-01T12:17:56.162Z,7.60
2019-06-01T12:20:24.735Z,7.10
2019-06-01T12:22:53.213Z,6.87
2019-06-01T12:25:21.738Z,6.80
2019-06-01T12:27:50.231Z,7.00
2019-06-01T12:30:18.935Z,7.20
2019-06-01T12:32:48.868Z,7.20
2019-06-01T12:35:17.427Z,6.70
2019-06-01T12:38:04.538Z,7.10
2019-06-01T12:40:16.794Z,7.40
2019-06-01T12:42:45.923Z,7.27
2019-06-01T12:45:22.475Z,6.93
2019-06-01T12:47:54.363Z,7.17
2019-06-01T12:50:19.653Z,6.30
2019-06-01T12:52:48.669Z,6.20
2019-06-01T12:55:17.235Z,7.00
2019-06-01T12:57:47.060Z,6.70
2019-06-01T13:00:16.388Z,6.57
2019-06-01T13:02:51.087Z,7.40
2019-06-01T13:05:16.175Z,7.00
2019-06-01T13:07:57.790Z,7.70
2019-06-01T13:10:15.657Z,7.10
2019-06-01T13:12:45.180Z,7.33
2019-06-01T13:15:14.259Z,7.23
2019-06-01T13:17:43.156Z,7.63
2019-06-01T13:20:12.840Z,6.83
2019-06-01T13:22:41.522Z,7.17
2019-06-01T13:25:10.243Z,6.97
2019-06-01T13:27:40.946Z,7.80
2019-06-01T13:30:09.548Z,7.07
2019-06-01T13:32:38.038Z,7.13
2019-06-01T13:35:06.861Z,7.03
2019-06-01T13:37:35.351Z,7.20
2019-06-01T13:40:04.385Z,7.43
2019-06-01T13:42:33.079Z,7.77
2019-06-01T13:45:02.042Z,7.50
2019-06-01T13:47:30.553Z,7.60
2019-06-01T13:49:58.961Z,10.10
2019-06-01T13:52:27.560Z,7.03
2019-06-01T13:54:56.077Z,8.13
2019-06-01T13:57:24.557Z,8.60
2019-06-01T13:59:53.160Z,13.50
2019-06-01T14:02:21.972Z,9.40
2019-06-01T14:04:50.442Z,16.57
2019-06-01T14:07:19.024Z,14.60
2019-06-01T14:09:47.617Z,14.83
2019-06-01T14:12:16.213Z,15.77
2019-06-01T14:14:45.356Z,13.53
2019-06-01T14:17:13.862Z,10.50
2019-06-01T14:19:42.418Z,8.40
2019-06-01T14:22:11.017Z,11.10
2019-06-01T14:24:43.587Z,8.40
2019-06-01T14:27:09.792Z,6.80
2019-06-01T14:29:38.414Z,10.60
2019-06-01T14:32:07.000Z,11.80
2019-06-01T14:34:35.463Z,9.93
2019-06-01T14:37:03.978Z,9.10
2019-06-01T14:39:32.600Z,10.13
2019-06-01T14:42:01.114Z,8.70
2019-06-01T14:44:29.760Z,9.70
2019-06-01T14:47:03.856Z,9.03
2019-06-01T14:49:28.531Z,10.00
2019-06-01T14:51:57.857Z,10.17
2019-06-01T14:54:26.664Z,12.67
2019-06-01T14:56:55.886Z,12.60
2019-06-01T14:59:24.466Z,18.97
2019-06-01T15:01:54.149Z,14.60
2019-06-01T15:04:22.839Z,14.93
2019-06-01T15:06:52.302Z,12.40
2019-06-01T15:09:21.078Z,15.20
2019-06-01T15:11:50.600Z,12.87
2019-06-01T15:14:19.812Z,13.10
2019-06-01T15:16:49.523Z,12.27
2019-06-01T15:19:18.311Z,11.30
2019-06-01T15:21:46.810Z,12.87
2019-06-01T15:24:15.387Z,12.57
2019-06-01T15:26:43.885Z,11.87
2019-06-01T15:29:12.696Z,11.50
2019-06-01T15:31:41.514Z,11.30
2019-06-01T15:34:10.018Z,12.20
2019-06-01T15:36:38.381Z,12.43
2019-06-01T15:39:23.463Z,10.40
2019-06-01T15:41:38.118Z,11.60
2019-06-01T15:44:06.763Z,10.87
2019-06-01T15:46:35.429Z,11.20
2019-06-01T15:49:04.076Z,11.73
2019-06-01T15:51:32.570Z,11.47
2019-06-01T15:54:01.185Z,11.10
2019-06-01T15:56:29.650Z,10.60
2019-06-01T15:58:59.789Z,10.40
2019-06-01T16:01:28.678Z,10.80
2019-06-01T16:03:57.492Z,10.20
2019-06-01T16:06:26.043Z,10.23
2019-06-01T16:08:55.265Z,10.60
2019-06-01T16:11:23.972Z,10.43
2019-06-01T16:13:53.613Z,9.87
2019-06-01T16:16:22.450Z,9.83
2019-06-01T16:18:51.066Z,9.43
2019-06-01T16:21:19.671Z,10.17
2019-06-01T16:23:50.345Z,10.33
2019-06-01T16:26:18.717Z,10.17
2019-06-01T16:28:47.399Z,10.30
2019-06-01T16:31:16.836Z,9.43
2019-06-01T16:33:45.334Z,10.60
2019-06-01T16:36:13.931Z,10.60
2019-06-01T16:38:42.520Z,10.30
2019-06-01T16:41:11.008Z,10.10
2019-06-01T16:43:39.458Z,10.87
2019-06-01T16:46:08.046Z,11.60
2019-06-01T16:48:36.451Z,12.40
2019-06-01T16:51:05.904Z,10.13
2019-06-01T16:53:34.585Z,11.27
2019-06-01T16:56:04.050Z,11.30
2019-06-01T16:58:32.572Z,11.27
2019-06-01T17:01:02.561Z,12.13
2019-06-01T17:03:31.307Z,11.67
2019-06-01T17:06:00.555Z,11.33
2019-06-01T17:08:29.201Z,10.80
2019-06-01T17:10:58.678Z,11.00
2019-06-01T17:13:27.321Z,10.37
2019-06-01T17:15:56.842Z,11.37
2019-06-01T17:18:25.490Z,11.40
2019-06-01T17:20:57.165Z,10.77
2019-06-01T17:23:27.989Z,11.10
2019-06-01T17:25:56.207Z,11.33
2019-06-01T17:28:24.774Z,12.80
2019-06-01T17:30:53.533Z,10.67
2019-06-01T17:33:22.415Z,10.53
2019-06-01T17:35:51.025Z,11.10
2019-06-01T17:38:20.062Z,10.50
2019-06-01T17:40:48.565Z,10.83
2019-06-01T17:43:17.132Z,11.23
2019-06-01T17:45:45.685Z,11.27
2019-06-01T17:48:25.985Z,10.63
2019-06-01T17:50:44.877Z,10.03
2019-06-01T17:53:13.448Z,10.43
2019-06-01T17:55:42.235Z,10.43
2019-06-01T17:58:12.523Z,11.47
2019-06-01T18:00:41.595Z,10.93
2019-06-01T18:03:10.348Z,10.40
2019-06-01T18:05:38.998Z,11.30
2019-06-01T18:08:08.145Z,10.33
2019-06-01T18:10:52.690Z,11.40
2019-06-01T18:13:08.677Z,11.10
2019-06-01T18:15:38.135Z,9.90
2019-06-01T18:18:08.536Z,10.23
2019-06-01T18:20:37.559Z,12.37
2019-06-01T18:23:09.523Z,12.43
